logo
App data

Kingdom of Aurelia: Mystery of the Poisoned Dagger

Help boy Sam to save Princess Aurora and stop the villain, who intended to seize power in the Kingdom of Aurelia.
Store | Hub | SteamDB
Developer: Shaman Games Studio Publisher: Publisher: Shaman Games Studio
Genre: Adventure, Casual
Languages: English
Tags: Adventure (24), Casual (24), Hidden Object (9), Point & Click (6)
Category: Single-player
Release date: Sep 8, 2016
Price: $6.99
Owners: 0 .. 20,000
Followers: 118
Peak concurrent players yesterday: 1
Playtime total: 02:09 (average) 04:10 (median)

Steam Spy is still in beta, so expect major bugs.

Owners data:

Access restricted.

This feature is only available to users with special access rights. Sorry.

If you want to proceed, you need to register or log in first and then back Steam Spy on Patreon. Look for Indie or Pro pledge.

Don't forget to use the same email as on Steam Spy!

Audience in 2 weeks:

Access restricted.

This feature is only available to users with special access rights. Sorry.

If you want to proceed, you need to register or log in first and then back Steam Spy on Patreon. Look for Indie or Pro pledge.

Don't forget to use the same email as on Steam Spy!

Peak daily concurrent players:

CCU data courtesy of SteamDB. Used with permission.

Hourly concurrent players:

YouTube:

The views data is based on top 50 videos uploaded last week. Actual number of views might be more than the number shown.

The displayed number of videos uploaded yesterday is limited to 50, so if there were more videos uploaded, the number will still show 50.

If the game has commonly used word as its name (like "FEAR" or "Volume") its number of Youtube views might be wrong.

Games similar to this one:

# Game Release date
Price
Score rank
(Userscore / Metascore)
Owners
Players
Playtime (Median)
1 Puppy Dog: Jigsaw Puzzles Jul 19, 2016 $1.99100% (100%)50,000 .. 100,0000%00:00 (00:00)
2 Wandering Willows Aug 12, 2009 $14.99N/A (N/A)0 .. 20,0000%00:00 (00:00)
3 Button Tales Dec 22, 2016 $1.99N/A (N/A)20,000 .. 50,0000.94%02:16 (00:45)
4 Pajama Sam: Games to Play on Any Day Jan 1, 2001 $4.99N/A (N/A)20,000 .. 50,0000%00:00 (00:00)
5 Let's Explore the Airport (Junior Field Trips) Jan 1, 1995 $6.99N/A (N/A)20,000 .. 50,0000%00:00 (00:00)
6 Lost Lands: Dark Overlord Jun 26, 2015 $6.9997% (97%)0 .. 20,0000%00:00 (00:00)
7 Rocket Mania Deluxe Aug 30, 2006 $4.99N/A (N/A)20,000 .. 50,0000%00:00 (00:00)
8 New York Mysteries: High Voltage Jan 12, 2016 $6.9983% (92%)0 .. 20,0000%00:00 (00:00)
9 Soda Drinker Pro Apr 13, 2016 $4.9979% (91%)0 .. 20,00010%00:01 (00:00)
10 Gemini Lost May 6, 2010 $6.99N/A (N/A)0 .. 20,0000%00:00 (00:00)
11 Baseball Mogul 2015 Apr 3, 2014 $4.99N/A (N/A)20,000 .. 50,0000%00:00 (00:00)
12 Pretty Girls Panic! Dec 20, 2016 $1.9965% (86%)20,000 .. 50,0008%02:32 (03:14)
13 Among the Heavens Nov 6, 2015 $2.9965% (86%)50,000 .. 100,0000%00:00 (00:00)
14 Alcatraz: VR Escape Room Dec 27, 2016 $4.99N/A (N/A)0 .. 20,0000%00:00 (00:00)
15 7 Wonders II Jun 10, 2008 $9.9957% (83%)20,000 .. 50,0000%00:00 (00:00)
16 Independence War 2: Edge of Chaos Jun 29, 2001 $5.99N/A (N/A/83%)0 .. 20,0000%00:00 (00:00)
17 Virtual Villagers - The Secret City May 28, 2008 $9.99N/A (N/A)0 .. 20,0000%00:00 (00:00)
18 Mystery of Unicorn Castle: The Beastmaster Dec 18, 2015 $6.99N/A (N/A)0 .. 20,0000%00:00 (00:00)
19 Virtual Families May 6, 2009 $9.99N/A (N/A)0 .. 20,0000%00:00 (00:00)
20 Elementary My Dear Majesty! Nov 15, 2013 $0.9941% (75%)20,000 .. 50,0000%00:00 (00:00)
21 Train Town Aug 26, 2014 $2.9937% (73%)0 .. 20,0000%00:00 (00:00)
22 Runaway Express Mystery Sep 23, 2014 $6.99N/A (N/A)0 .. 20,0000%00:00 (00:00)
23 Mantis Burn Racing Jul 5, 2016 $14.9931% (69%/71%)0 .. 20,0000%00:00 (00:00)
24 Diner Mania Jun 25, 2015 $3.9929% (68%)0 .. 20,0000%00:00 (00:00)
25 Giant Machines 2017 Sep 29, 2016 $19.9925% (65%)0 .. 20,00017.39%03:25 (03:14)
26 My Vet Practice - In the Country Mar 27, 2014 $9.99N/A (N/A)0 .. 20,0000%00:00 (00:00)
27 Battleship Jun 10, 2013 $9.99N/A (N/A)0 .. 20,0000%00:00 (00:00)
28 Jane Angel: Templar Mystery Dec 10, 2009 $4.99N/A (N/A)20,000 .. 50,0000%00:00 (00:00)
29 1942: The Pacific Air War Jan 1, 1994 $6.99N/A (N/A)0 .. 20,0000%00:00 (00:00)
30 Veteran Combat Feb 16, 2015 $1.99N/A (N/A)0 .. 20,0000%00:00 (00:00)
31 Sacra Terra: Kiss of Death Collector’s Edition Mar 22, 2013 $9.99N/A (N/A)0 .. 20,0000%00:00 (00:00)
32 Tactical Soccer The New Season Nov 20, 2015 $9.99N/A (N/A)0 .. 20,0007.89%03:10 (02:21)
33 Heart and Seoul Nov 1, 2016 $2.9913% (52%)20,000 .. 50,0001.52%03:20 (01:06)
34 Hidden Mysteries: Titanic Jan 1, 2012 $4.99N/A (N/A)0 .. 20,0000%00:00 (00:00)
35 Alpine Ski VR Dec 16, 2016 $4.99N/A (N/A)0 .. 20,0000%00:00 (00:00)
36 Theme Park Studio Dec 2, 2016 $29.998% (45%)0 .. 20,0000%00:00 (00:00)
37 TransOcean 2: Rivals May 10, 2016 $24.998% (43%/69%)20,000 .. 50,0000%00:00 (00:00)
38 Music Wars Empire Jun 1, 2016 $14.998% (43%)0 .. 20,0000%00:00 (00:00)
39 Masters of the World - Geopolitical Simulator 3 Feb 5, 2014 $34.997% (42%)0 .. 20,0000%00:00 (00:00)
40 Trucker Aug 12, 2016 $1.99N/A (N/A)0 .. 20,00029.17%04:26 (05:32)
41 D Series OFF ROAD Driving Simulation May 19, 2015 $7.996% (39%)0 .. 20,0000%00:00 (00:00)
42 CITYCONOMY: Service for your City Dec 2, 2015 $24.996% (38%)20,000 .. 50,0000%00:00 (00:00)
43 Bus Tycoon ND (Night and Day) Sep 23, 2016 $2.99N/A (N/A)0 .. 20,0000%00:00 (00:00)
44 Vistascapes VR Jul 8, 2016 N/AN/A (N/A)0 .. 20,0000%00:00 (00:00)
45 Rail Cargo Simulator Jun 7, 2016 $4.99N/A (N/A)0 .. 20,0000%00:00 (00:00)
46 Firefighters - The Simulation Sep 18, 2012 $14.99N/A (N/A)0 .. 20,0000%00:00 (00:00)
47 Tetris Ultimate Dec 10, 2015 $14.994% (31%)0 .. 20,0000%00:00 (00:00)
48 Ships 2017 Oct 19, 2016 $14.993% (29%)0 .. 20,0000%00:00 (00:00)
49 The Secret Of Hildegards Apr 1, 2011 $2.99N/A (N/A)20,000 .. 50,0000%00:00 (00:00)
50 Ultimate Rock Crawler Jan 25, 2016 $4.99N/A (N/A)0 .. 20,0000%00:00 (00:00)
51 28 Waves Later Mar 15, 2017 $4.991% (10%)100,000 .. 200,0000%00:00 (00:00)
52 Green Ranch Oct 21, 2016 $5.99N/A (N/A)0 .. 20,0004%09:04 (03:01)
53 Country Tales Aug 27, 2015 $6.99N/A (N/A)0 .. 20,0000%00:00 (00:00)
54 Mystery Expedition: Prisoners of Ice Feb 18, 2014 $6.99N/A (N/A)0 .. 20,0000%00:00 (00:00)
55 GROOVY May 27, 2016 $3.99N/A (N/A)20,000 .. 50,0000%00:00 (00:00)
56 Fitness Dash May 6, 2010 $6.99N/A (N/A)0 .. 20,0000%00:00 (00:00)
57 Guardian war VR Aug 16, 2016 $9.99N/A (N/A)0 .. 20,0000%00:00 (00:00)
58 TriJinx: A Kristine Kross Mystery May 6, 2010 $6.99N/A (N/A)0 .. 20,0000%00:00 (00:00)
59 Cheaters Blackjack 21 Jun 7, 2016 $3.99N/A (N/A)0 .. 20,0000%00:00 (00:00)
60 Hidden Mysteries: Civil War Aug 11, 2015 $4.99N/A (N/A)0 .. 20,0000%00:00 (00:00)
61 Pepe Porcupine Jun 6, 2016 $2.99N/A (N/A)0 .. 20,0000%00:00 (00:00)
62 Nightclub Emporium Aug 7, 2015 $4.99N/A (N/A)0 .. 20,0000%00:00 (00:00)
63 Let's Explore the Farm (Junior Field Trips) Jan 1, 1995 $6.99N/A (N/A)0 .. 20,0000%00:00 (00:00)
64 Bayla Bunny Jun 13, 2016 $2.99N/A (N/A)50,000 .. 100,0000%00:00 (00:00)
65 Anmynor Puzzles Mar 20, 2014 $9.99N/A (N/A)0 .. 20,0000%00:00 (00:00)

Owners of this game also own:

Access restricted.

This feature is only available to users with special access rights. Sorry.

If you want to proceed, you need to register or log in first and then back Steam Spy on Patreon. Look for Indie or Pro pledge.

Don't forget to use the same email as on Steam Spy!

Playtime distribution:

Access restricted.

This feature is only available to users with special access rights. Sorry.

If you want to proceed, you need to register or log in first and then back Steam Spy on Patreon. Look for Indie or Pro pledge.

Don't forget to use the same email as on Steam Spy!

Playtime (2 weeks):

Access restricted.

This feature is only available to users with special access rights. Sorry.

If you want to proceed, you need to register or log in first and then back Steam Spy on Patreon. Look for Indie or Pro pledge.

Don't forget to use the same email as on Steam Spy!

User reviews:

Login required.

Please register or log in to see this information.